RYR91AC LICT-LIBD
Flight info
| Callsign | RYR91AC |
|---|---|
| Flight time | 0h 50m |
| Altitude | 34000 |
| Route | PAL DCT ROSAS DCT AMANO DCT NAXES DCT VARAL DCT POLIT DCT KUTID DCT VEGAN DCT BUMOK |
| Aircraft | B738/M-SDE2E3FGHIRWXY/LB1 |
Departure
| Time | 2026-05-05 12:22 |
|---|---|
| Airport | Vincenzo Florio Airport Trapani-Birgi (LICT) |
Arrival
| Time | 2026-05-05 13:12 |
|---|---|
| Airport | Bari Karol Wojtyła International Airport (LIBD) |
| Time | Latitude | Longitude | Altitude | Speed | Heading |
|---|---|---|---|---|---|
| 2026-05-05 12:04 | 37.90244 | 12.49658 | 27 ft | 0 kts | 261° |
| 2026-05-05 12:17 | 37.90245 | 12.49669 | 29 ft | 4 kts | 260° |
| 2026-05-05 12:17 | 37.90250 | 12.49702 | 29 ft | 4 kts | 264° |
| 2026-05-05 12:17 | 37.90248 | 12.49734 | 28 ft | 4 kts | 296° |
| 2026-05-05 12:17 | 37.90236 | 12.49755 | 28 ft | 1 kts | 322° |
| 2026-05-05 12:18 | 37.90233 | 12.49758 | 28 ft | 0 kts | 322° |
| 2026-05-05 12:20 | 37.90259 | 12.49731 | 28 ft | 9 kts | 321° |
| 2026-05-05 12:20 | 37.90320 | 12.49737 | 30 ft | 9 kts | 17° |
| 2026-05-05 12:21 | 37.90372 | 12.49704 | 33 ft | 9 kts | 308° |
| 2026-05-05 12:21 | 37.90401 | 12.49668 | 33 ft | 9 kts | 333° |
| 2026-05-05 12:21 | 37.90474 | 12.49705 | 35 ft | 17 kts | 38° |
| 2026-05-05 12:21 | 37.90548 | 12.49743 | 35 ft | 10 kts | 338° |
| 2026-05-05 12:22 | 37.90697 | 12.49518 | 35 ft | 75 kts | 308° |
| 2026-05-05 12:22 | 37.91201 | 12.48693 | 29 ft | 159 kts | 308° |
| 2026-05-05 12:22 | 37.91986 | 12.47426 | 511 ft | 190 kts | 306° |
| 2026-05-05 12:22 | 37.92937 | 12.46342 | 1795 ft | 186 kts | 338° |
| 2026-05-05 12:23 | 37.94239 | 12.46039 | 2575 ft | 202 kts | 356° |
| 2026-05-05 12:23 | 37.95739 | 12.45826 | 2916 ft | 230 kts | 354° |
| 2026-05-05 12:23 | 37.97412 | 12.45571 | 3282 ft | 252 kts | 351° |
| 2026-05-05 12:23 | 37.99120 | 12.44727 | 3762 ft | 273 kts | 331° |
| 2026-05-05 12:24 | 38.00809 | 12.43590 | 4717 ft | 274 kts | 332° |
| 2026-05-05 12:24 | 38.02538 | 12.42582 | 5706 ft | 277 kts | 344° |
| 2026-05-05 12:24 | 38.04466 | 12.42623 | 6571 ft | 284 kts | 18° |
| 2026-05-05 12:24 | 38.06168 | 12.43915 | 7405 ft | 289 kts | 38° |
| 2026-05-05 12:25 | 38.07774 | 12.45501 | 8196 ft | 296 kts | 38° |
| 2026-05-05 12:25 | 38.09413 | 12.47139 | 8970 ft | 305 kts | 38° |
| 2026-05-05 12:25 | 38.11142 | 12.48865 | 9304 ft | 330 kts | 38° |
| 2026-05-05 12:25 | 38.13026 | 12.50737 | 9517 ft | 357 kts | 38° |
| 2026-05-05 12:26 | 38.15051 | 12.52739 | 9718 ft | 381 kts | 37° |
| 2026-05-05 12:26 | 38.17209 | 12.54864 | 9936 ft | 403 kts | 37° |
| 2026-05-05 12:26 | 38.19456 | 12.57070 | 10410 ft | 412 kts | 37° |
| 2026-05-05 12:26 | 38.21739 | 12.59308 | 11098 ft | 416 kts | 37° |
| 2026-05-05 12:27 | 38.24039 | 12.61562 | 11763 ft | 420 kts | 37° |
| 2026-05-05 12:27 | 38.26365 | 12.63839 | 12414 ft | 424 kts | 36° |
| 2026-05-05 12:27 | 38.28713 | 12.66140 | 13052 ft | 428 kts | 36° |
| 2026-05-05 12:27 | 38.31083 | 12.68463 | 13685 ft | 432 kts | 36° |
| 2026-05-05 12:28 | 38.33476 | 12.70811 | 14263 ft | 436 kts | 36° |
| 2026-05-05 12:28 | 38.35885 | 12.73176 | 14839 ft | 439 kts | 36° |
| 2026-05-05 12:28 | 38.38310 | 12.75560 | 15424 ft | 442 kts | 36° |
| 2026-05-05 12:28 | 38.40748 | 12.77959 | 15994 ft | 445 kts | 36° |
| 2026-05-05 12:29 | 38.43205 | 12.80378 | 16556 ft | 448 kts | 35° |
| 2026-05-05 12:29 | 38.45686 | 12.82823 | 17077 ft | 452 kts | 35° |
| 2026-05-05 12:29 | 38.48181 | 12.85284 | 17624 ft | 455 kts | 35° |
| 2026-05-05 12:29 | 38.50661 | 12.87732 | 18158 ft | 458 kts | 35° |
| 2026-05-05 12:30 | 38.53191 | 12.90232 | 18644 ft | 461 kts | 35° |
| 2026-05-05 12:30 | 38.55771 | 12.92785 | 19099 ft | 464 kts | 35° |
| 2026-05-05 12:30 | 38.58327 | 12.95317 | 19543 ft | 466 kts | 35° |
| 2026-05-05 12:30 | 38.60860 | 12.97826 | 19964 ft | 468 kts | 36° |
| 2026-05-05 12:31 | 38.63443 | 13.00389 | 20382 ft | 472 kts | 36° |
| 2026-05-05 12:31 | 38.66048 | 13.02975 | 20723 ft | 476 kts | 36° |
| 2026-05-05 12:31 | 38.68670 | 13.05581 | 21137 ft | 478 kts | 36° |
| 2026-05-05 12:31 | 38.71300 | 13.08198 | 21570 ft | 480 kts | 36° |
| 2026-05-05 12:32 | 38.73940 | 13.10827 | 21975 ft | 482 kts | 36° |
| 2026-05-05 12:32 | 38.76594 | 13.13473 | 22349 ft | 484 kts | 36° |
| 2026-05-05 12:32 | 38.79256 | 13.16128 | 22758 ft | 486 kts | 36° |
| 2026-05-05 12:32 | 38.81929 | 13.18798 | 23113 ft | 488 kts | 36° |
| 2026-05-05 12:33 | 38.84618 | 13.21486 | 23408 ft | 493 kts | 36° |
| 2026-05-05 12:33 | 38.87332 | 13.24201 | 23652 ft | 497 kts | 36° |
| 2026-05-05 12:33 | 38.90064 | 13.26937 | 23964 ft | 498 kts | 36° |
| 2026-05-05 12:33 | 38.92797 | 13.29678 | 24283 ft | 499 kts | 36° |
| 2026-05-05 12:34 | 38.95538 | 13.32429 | 24587 ft | 501 kts | 36° |
| 2026-05-05 12:34 | 38.98286 | 13.35190 | 24867 ft | 503 kts | 36° |
| 2026-05-05 12:34 | 39.01048 | 13.37968 | 25124 ft | 505 kts | 36° |
| 2026-05-05 12:34 | 39.03807 | 13.40746 | 25700 ft | 499 kts | 36° |
| 2026-05-05 12:35 | 39.06503 | 13.43467 | 26579 ft | 487 kts | 36° |
| 2026-05-05 12:35 | 39.09137 | 13.46128 | 27488 ft | 476 kts | 35° |
| 2026-05-05 12:35 | 39.11708 | 13.48727 | 28422 ft | 465 kts | 35° |
| 2026-05-05 12:35 | 39.14227 | 13.51273 | 29248 ft | 457 kts | 34° |
| 2026-05-05 12:36 | 39.16727 | 13.53800 | 29772 ft | 457 kts | 33° |
| 2026-05-05 12:36 | 39.19231 | 13.56331 | 30199 ft | 458 kts | 33° |
| 2026-05-05 12:36 | 39.21740 | 13.58871 | 30574 ft | 459 kts | 33° |
| 2026-05-05 12:36 | 39.24247 | 13.61412 | 30999 ft | 458 kts | 33° |
| 2026-05-05 12:37 | 39.26752 | 13.63957 | 31397 ft | 458 kts | 33° |
| 2026-05-05 12:37 | 39.29247 | 13.66494 | 31857 ft | 456 kts | 33° |
| 2026-05-05 12:37 | 39.31728 | 13.69019 | 32345 ft | 453 kts | 33° |
| 2026-05-05 12:37 | 39.34196 | 13.71533 | 32790 ft | 451 kts | 32° |
| 2026-05-05 12:38 | 39.36658 | 13.74042 | 33200 ft | 450 kts | 32° |
| 2026-05-05 12:38 | 39.39116 | 13.76548 | 33624 ft | 449 kts | 32° |
| 2026-05-05 12:38 | 39.41557 | 13.79047 | 34056 ft | 448 kts | 33° |
| 2026-05-05 12:38 | 39.43890 | 13.81779 | 34088 ft | 459 kts | 40° |
| 2026-05-05 12:39 | 39.48219 | 13.87893 | 34105 ft | 458 kts | 43° |
| 2026-05-05 12:39 | 39.52407 | 13.94001 | 34105 ft | 451 kts | 42° |
| 2026-05-05 12:40 | 39.56624 | 14.00037 | 34114 ft | 453 kts | 42° |
| 2026-05-05 12:40 | 39.60881 | 14.06069 | 34114 ft | 454 kts | 41° |
| 2026-05-05 12:41 | 39.65158 | 14.12130 | 34114 ft | 456 kts | 42° |
| 2026-05-05 12:41 | 39.69442 | 14.18219 | 34109 ft | 457 kts | 42° |
| 2026-05-05 12:42 | 39.73728 | 14.24327 | 34123 ft | 458 kts | 42° |
| 2026-05-05 12:42 | 39.78014 | 14.30445 | 34104 ft | 457 kts | 42° |
| 2026-05-05 12:43 | 39.82241 | 14.36495 | 34111 ft | 453 kts | 42° |
| 2026-05-05 12:43 | 39.86467 | 14.42550 | 34111 ft | 451 kts | 42° |
| 2026-05-05 12:44 | 39.90661 | 14.48575 | 34101 ft | 447 kts | 42° |
| 2026-05-05 12:44 | 39.94812 | 14.54567 | 34105 ft | 445 kts | 42° |
| 2026-05-05 12:45 | 39.98963 | 14.60567 | 34109 ft | 446 kts | 43° |
| 2026-05-05 12:45 | 40.03166 | 14.66642 | 34117 ft | 456 kts | 43° |
| 2026-05-05 12:46 | 40.07437 | 14.72797 | 34102 ft | 457 kts | 43° |
| 2026-05-05 12:46 | 40.11702 | 14.78958 | 34104 ft | 457 kts | 43° |
| 2026-05-05 12:47 | 40.15972 | 14.85111 | 34108 ft | 456 kts | 42° |
| 2026-05-05 12:47 | 40.20326 | 14.91133 | 34108 ft | 455 kts | 41° |
| 2026-05-05 12:48 | 40.24691 | 14.97126 | 34105 ft | 454 kts | 40° |
| 2026-05-05 12:48 | 40.29023 | 15.03119 | 34096 ft | 449 kts | 40° |
| 2026-05-05 12:49 | 40.31139 | 15.06064 | 33892 ft | 441 kts | 40° |
| 2026-05-05 12:49 | 40.33226 | 15.08971 | 33624 ft | 433 kts | 40° |
| 2026-05-05 12:49 | 40.35282 | 15.11834 | 33267 ft | 430 kts | 41° |
| 2026-05-05 12:49 | 40.37330 | 15.14679 | 32883 ft | 427 kts | 41° |
| 2026-05-05 12:50 | 40.39358 | 15.17506 | 32536 ft | 424 kts | 42° |
| 2026-05-05 12:50 | 40.41375 | 15.20323 | 32153 ft | 422 kts | 42° |
| 2026-05-05 12:50 | 40.43379 | 15.23121 | 31770 ft | 420 kts | 42° |
| 2026-05-05 12:50 | 40.45383 | 15.25911 | 31396 ft | 419 kts | 42° |
| 2026-05-05 12:51 | 40.47352 | 15.28654 | 31045 ft | 418 kts | 43° |
| 2026-05-05 12:51 | 40.49343 | 15.31429 | 30696 ft | 417 kts | 42° |
| 2026-05-05 12:51 | 40.51327 | 15.34197 | 30339 ft | 415 kts | 43° |
| 2026-05-05 12:51 | 40.53303 | 15.36958 | 29961 ft | 414 kts | 43° |
| 2026-05-05 12:52 | 40.55273 | 15.39714 | 29567 ft | 413 kts | 43° |
| 2026-05-05 12:52 | 40.57232 | 15.42458 | 29167 ft | 411 kts | 43° |
| 2026-05-05 12:52 | 40.59185 | 15.45194 | 28789 ft | 409 kts | 43° |
| 2026-05-05 12:52 | 40.61078 | 15.47970 | 28451 ft | 408 kts | 48° |
| 2026-05-05 12:53 | 40.62773 | 15.50952 | 28105 ft | 406 kts | 51° |
| 2026-05-05 12:53 | 40.64398 | 15.53995 | 27752 ft | 404 kts | 52° |
| 2026-05-05 12:53 | 40.66004 | 15.57023 | 27390 ft | 402 kts | 52° |
| 2026-05-05 12:53 | 40.67612 | 15.60015 | 27051 ft | 400 kts | 51° |
| 2026-05-05 12:54 | 40.70842 | 15.65928 | 26373 ft | 396 kts | 50° |
| 2026-05-05 12:54 | 40.72450 | 15.68865 | 26022 ft | 394 kts | 49° |
| 2026-05-05 12:54 | 40.74046 | 15.71787 | 25699 ft | 392 kts | 50° |
| 2026-05-05 12:55 | 40.75634 | 15.74700 | 25356 ft | 390 kts | 50° |
| 2026-05-05 12:55 | 40.77213 | 15.77601 | 25017 ft | 388 kts | 50° |
| 2026-05-05 12:55 | 40.78783 | 15.80488 | 24676 ft | 387 kts | 50° |
| 2026-05-05 12:55 | 40.80351 | 15.83375 | 24307 ft | 387 kts | 49° |
| 2026-05-05 12:56 | 40.81917 | 15.86258 | 23970 ft | 385 kts | 50° |
| 2026-05-05 12:56 | 40.83477 | 15.89134 | 23599 ft | 385 kts | 50° |
| 2026-05-05 12:56 | 40.85030 | 15.92002 | 23201 ft | 383 kts | 50° |
| 2026-05-05 12:56 | 40.86578 | 15.94862 | 22835 ft | 381 kts | 50° |
| 2026-05-05 12:57 | 40.88114 | 15.97704 | 22483 ft | 379 kts | 49° |
| 2026-05-05 12:57 | 40.89643 | 16.00533 | 22133 ft | 377 kts | 50° |
| 2026-05-05 12:57 | 40.91160 | 16.03344 | 21800 ft | 374 kts | 50° |
| 2026-05-05 12:57 | 40.92666 | 16.06135 | 21449 ft | 372 kts | 50° |
| 2026-05-05 12:58 | 40.94140 | 16.08932 | 21106 ft | 371 kts | 56° |
| 2026-05-05 12:58 | 40.95036 | 16.12138 | 20771 ft | 374 kts | 79° |
| 2026-05-05 12:58 | 40.95125 | 16.15557 | 20504 ft | 371 kts | 91° |
| 2026-05-05 12:58 | 40.95001 | 16.18961 | 20175 ft | 370 kts | 92° |
| 2026-05-05 12:59 | 40.94849 | 16.22347 | 19833 ft | 368 kts | 93° |
| 2026-05-05 12:59 | 40.94700 | 16.25720 | 19497 ft | 367 kts | 93° |
| 2026-05-05 12:59 | 40.94563 | 16.29083 | 19162 ft | 366 kts | 92° |
| 2026-05-05 13:00 | 40.94315 | 16.35791 | 18460 ft | 364 kts | 92° |
| 2026-05-05 13:00 | 40.94197 | 16.39104 | 18093 ft | 356 kts | 93° |
| 2026-05-05 13:01 | 40.93862 | 16.48523 | 17088 ft | 328 kts | 93° |
| 2026-05-05 13:01 | 40.93757 | 16.51500 | 16780 ft | 320 kts | 91° |
| 2026-05-05 13:01 | 40.94043 | 16.54363 | 16457 ft | 312 kts | 69° |
| 2026-05-05 13:01 | 40.94794 | 16.57029 | 16203 ft | 308 kts | 67° |
| 2026-05-05 13:02 | 40.95572 | 16.59664 | 15909 ft | 309 kts | 67° |
| 2026-05-05 13:02 | 40.96369 | 16.62363 | 15638 ft | 323 kts | 67° |
| 2026-05-05 13:02 | 40.97191 | 16.65174 | 15286 ft | 329 kts | 67° |
| 2026-05-05 13:02 | 40.98000 | 16.67978 | 14970 ft | 322 kts | 67° |
| 2026-05-05 13:03 | 40.98784 | 16.70718 | 14696 ft | 315 kts | 67° |
| 2026-05-05 13:03 | 40.99538 | 16.73362 | 14396 ft | 308 kts | 67° |
| 2026-05-05 13:03 | 41.00283 | 16.75985 | 14102 ft | 302 kts | 67° |
| 2026-05-05 13:03 | 41.01025 | 16.78597 | 13567 ft | 309 kts | 68° |
| 2026-05-05 13:04 | 41.01807 | 16.81350 | 12811 ft | 327 kts | 68° |
| 2026-05-05 13:04 | 41.02621 | 16.84222 | 12067 ft | 339 kts | 68° |
| 2026-05-05 13:04 | 41.03461 | 16.87194 | 11320 ft | 349 kts | 69° |
| 2026-05-05 13:04 | 41.04321 | 16.90242 | 10569 ft | 357 kts | 69° |
| 2026-05-05 13:05 | 41.05200 | 16.93361 | 9848 ft | 363 kts | 69° |
| 2026-05-05 13:05 | 41.06076 | 16.96475 | 9052 ft | 358 kts | 69° |
| 2026-05-05 13:05 | 41.06939 | 16.99547 | 8290 ft | 354 kts | 69° |
| 2026-05-05 13:05 | 41.07792 | 17.02584 | 7546 ft | 349 kts | 69° |
| 2026-05-05 13:06 | 41.08636 | 17.05582 | 6809 ft | 345 kts | 69° |
| 2026-05-05 13:06 | 41.09831 | 17.08303 | 6030 ft | 342 kts | 47° |
| 2026-05-05 13:06 | 41.11731 | 17.10138 | 5287 ft | 337 kts | 24° |
| 2026-05-05 13:06 | 41.13948 | 17.10903 | 4941 ft | 321 kts | 2° |
| 2026-05-05 13:07 | 41.16106 | 17.10714 | 4669 ft | 303 kts | 346° |
| 2026-05-05 13:07 | 41.18029 | 17.09809 | 4428 ft | 286 kts | 330° |
| 2026-05-05 13:07 | 41.19656 | 17.08493 | 4404 ft | 262 kts | 315° |
| 2026-05-05 13:07 | 41.20659 | 17.06618 | 3938 ft | 255 kts | 285° |
| 2026-05-05 13:08 | 41.20988 | 17.04352 | 3529 ft | 249 kts | 270° |
| 2026-05-05 13:08 | 41.20789 | 17.02090 | 3102 ft | 245 kts | 257° |
| 2026-05-05 13:08 | 41.20441 | 16.99877 | 2672 ft | 245 kts | 257° |
| 2026-05-05 13:08 | 41.20003 | 16.97725 | 2415 ft | 235 kts | 249° |
| 2026-05-05 13:09 | 41.19454 | 16.95750 | 2311 ft | 220 kts | 248° |
| 2026-05-05 13:09 | 41.18928 | 16.93929 | 2194 ft | 203 kts | 247° |
| 2026-05-05 13:09 | 41.18442 | 16.92235 | 2097 ft | 190 kts | 248° |
| 2026-05-05 13:09 | 41.17989 | 16.90642 | 2042 ft | 179 kts | 247° |
| 2026-05-05 13:10 | 41.17561 | 16.89110 | 1909 ft | 178 kts | 245° |
| 2026-05-05 13:10 | 41.17112 | 16.87573 | 1709 ft | 181 kts | 248° |
| 2026-05-05 13:10 | 41.16671 | 16.86023 | 1508 ft | 174 kts | 248° |
| 2026-05-05 13:10 | 41.16394 | 16.85043 | 1345 ft | 168 kts | 248° |
| 2026-05-05 13:11 | 41.15995 | 16.83631 | 1138 ft | 163 kts | 248° |
| 2026-05-05 13:11 | 41.15610 | 16.82271 | 925 ft | 155 kts | 248° |
| 2026-05-05 13:11 | 41.15235 | 16.80948 | 727 ft | 153 kts | 250° |
| 2026-05-05 13:11 | 41.14841 | 16.79635 | 521 ft | 156 kts | 250° |
| 2026-05-05 13:12 | 41.14464 | 16.78249 | 309 ft | 165 kts | 253° |
| 2026-05-05 13:12 | 41.14074 | 16.76860 | 132 ft | 151 kts | 252° |
| 2026-05-05 13:12 | 41.13746 | 16.75691 | 139 ft | 112 kts | 250° |
| 2026-05-05 13:12 | 41.13559 | 16.75027 | 136 ft | 29 kts | 249° |
| 2026-05-05 13:13 | 41.13486 | 16.74782 | 138 ft | 18 kts | 239° |
| 2026-05-05 13:13 | 41.13386 | 16.74796 | 145 ft | 17 kts | 127° |
| 2026-05-05 13:13 | 41.13349 | 16.74940 | 147 ft | 17 kts | 78° |
| 2026-05-05 13:13 | 41.13388 | 16.75083 | 147 ft | 17 kts | 69° |
| 2026-05-05 13:14 | 41.13436 | 16.75253 | 142 ft | 22 kts | 70° |
| 2026-05-05 13:14 | 41.13493 | 16.75457 | 142 ft | 25 kts | 70° |
| 2026-05-05 13:14 | 41.13548 | 16.75648 | 137 ft | 21 kts | 69° |
| 2026-05-05 13:14 | 41.13599 | 16.75826 | 137 ft | 20 kts | 70° |
| 2026-05-05 13:15 | 41.13637 | 16.75993 | 135 ft | 18 kts | 96° |
| 2026-05-05 13:15 | 41.13560 | 16.76111 | 135 ft | 17 kts | 126° |
| 2026-05-05 13:15 | 41.13579 | 16.76257 | 135 ft | 16 kts | 70° |
| 2026-05-05 13:15 | 41.13615 | 16.76382 | 135 ft | 7 kts | 68° |
| 2026-05-05 13:16 | 41.13631 | 16.76439 | 135 ft | 7 kts | 70° |
| 2026-05-05 13:16 | 41.13635 | 16.76474 | 135 ft | 2 kts | 112° |
| 2026-05-05 13:16 | 41.13615 | 16.76492 | 135 ft | 5 kts | 154° |
| 2026-05-05 13:16 | 41.13580 | 16.76511 | 135 ft | 2 kts | 159° |
| 2026-05-05 13:17 | 41.13577 | 16.76512 | 135 ft | 0 kts | 159° |